createdAt,value
2023-07-28T00:01:01.385Z,16.93
2023-07-28T00:03:30.443Z,16.93
2023-07-28T00:05:57.045Z,16.91
2023-07-28T00:08:23.501Z,16.91
2023-07-28T00:10:49.949Z,16.91
2023-07-28T00:13:16.410Z,16.89
2023-07-28T00:15:42.942Z,16.90
2023-07-28T00:18:09.369Z,16.90
2023-07-28T00:20:38.218Z,16.91
2023-07-28T00:23:07.164Z,16.92
2023-07-28T00:25:33.638Z,16.93
2023-07-28T00:28:00.241Z,16.93
2023-07-28T00:30:27.739Z,16.94
2023-07-28T00:32:54.306Z,16.93
2023-07-28T00:35:23.132Z,16.95
2023-07-28T00:37:49.557Z,16.95
2023-07-28T00:40:18.459Z,16.94
2023-07-28T00:42:46.669Z,16.97
2023-07-28T00:45:15.452Z,16.98
2023-07-28T00:47:42.260Z,17.00
2023-07-28T00:50:11.581Z,16.98
2023-07-28T00:52:38.934Z,16.99
2023-07-28T00:55:07.330Z,16.98
2023-07-28T00:57:34.912Z,17.00
2023-07-28T01:00:02.434Z,16.98
2023-07-28T01:02:29.059Z,17.00
2023-07-28T01:04:55.612Z,16.99
2023-07-28T01:07:31.191Z,16.99
2023-07-28T01:10:11.619Z,16.98
2023-07-28T01:12:41.158Z,17.00
2023-07-28T01:15:07.981Z,16.99
2023-07-28T01:17:34.519Z,16.99
2023-07-28T01:20:01.069Z,16.99
2023-07-28T01:22:56.618Z,16.99
2023-07-28T01:25:34.572Z,17.00
2023-07-28T01:28:04.659Z,16.98
2023-07-28T01:30:31.296Z,16.97
2023-07-28T01:32:58.902Z,16.98
2023-07-28T01:35:27.419Z,16.99
2023-07-28T01:37:56.186Z,16.98
2023-07-28T01:40:22.621Z,16.97
2023-07-28T01:42:49.071Z,16.99
2023-07-28T01:45:15.483Z,16.96
2023-07-28T01:47:42.015Z,16.96
2023-07-28T01:50:08.685Z,16.95
2023-07-28T01:52:35.155Z,16.94
2023-07-28T01:55:01.572Z,16.95
2023-07-28T01:57:28.806Z,16.94
2023-07-28T01:59:55.695Z,16.93
2023-07-28T02:02:24.690Z,16.93
2023-07-28T02:04:51.313Z,16.95
2023-07-28T02:07:17.778Z,16.96
2023-07-28T02:09:44.310Z,16.96
2023-07-28T02:12:10.946Z,16.95
2023-07-28T02:14:37.435Z,16.95
2023-07-28T02:17:06.850Z,16.95
2023-07-28T02:19:33.341Z,16.95
2023-07-28T02:21:59.952Z,16.96
2023-07-28T02:24:26.372Z,16.96
2023-07-28T02:26:52.921Z,16.96
2023-07-28T02:29:19.360Z,16.96
2023-07-28T02:31:45.804Z,16.95
2023-07-28T02:34:14.992Z,16.95
2023-07-28T02:36:43.949Z,16.96
2023-07-28T02:39:10.390Z,16.94
2023-07-28T02:41:36.823Z,16.94
2023-07-28T02:44:03.425Z,16.95
2023-07-28T02:46:29.864Z,16.94
2023-07-28T02:48:56.426Z,16.95
2023-07-28T02:51:27.785Z,16.96
2023-07-28T02:53:54.236Z,16.96
2023-07-28T02:56:21.772Z,16.94
2023-07-28T02:58:48.309Z,16.95
2023-07-28T03:01:14.860Z,16.93
2023-07-28T03:03:41.447Z,16.94
2023-07-28T03:06:07.986Z,16.93
2023-07-28T03:08:36.986Z,16.94
2023-07-28T03:11:03.649Z,16.94
2023-07-28T03:13:32.327Z,16.95
2023-07-28T03:15:58.791Z,16.95
2023-07-28T03:18:25.660Z,16.94
2023-07-28T03:20:52.092Z,16.94
2023-07-28T03:23:18.522Z,16.94
2023-07-28T03:25:45.052Z,16.94
2023-07-28T03:28:14.061Z,16.93
2023-07-28T03:30:40.594Z,16.93
2023-07-28T03:33:09.683Z,16.91
2023-07-28T03:35:36.180Z,16.91
2023-07-28T03:38:03.092Z,16.92
2023-07-28T03:40:31.709Z,16.92
2023-07-28T03:42:58.617Z,16.91
2023-07-28T03:45:25.075Z,16.91
2023-07-28T03:47:53.936Z,16.89
2023-07-28T03:50:20.388Z,16.88
2023-07-28T03:52:49.212Z,16.87
2023-07-28T03:55:15.742Z,16.87
2023-07-28T03:57:42.257Z,16.87
2023-07-28T04:00:09.606Z,16.86
2023-07-28T04:02:38.488Z,16.84
2023-07-28T04:05:05.341Z,16.85
2023-07-28T04:07:33.852Z,16.85
2023-07-28T04:10:08.738Z,16.85
2023-07-28T04:12:35.188Z,16.85
2023-07-28T04:15:07.756Z,16.83
2023-07-28T04:17:34.290Z,16.82
2023-07-28T04:20:00.762Z,16.83
2023-07-28T04:22:27.797Z,16.84
2023-07-28T04:24:55.104Z,16.82
2023-07-28T04:27:21.546Z,16.83
2023-07-28T04:29:48.103Z,16.83
2023-07-28T04:32:14.761Z,16.85
2023-07-28T04:34:41.236Z,16.86
2023-07-28T04:37:07.796Z,16.87
2023-07-28T04:39:34.308Z,16.87
2023-07-28T04:42:02.818Z,16.88
2023-07-28T04:44:29.795Z,16.89
2023-07-28T04:46:56.289Z,16.88
2023-07-28T04:49:22.705Z,16.91
2023-07-28T04:51:53.408Z,16.93
2023-07-28T04:54:19.857Z,16.94
2023-07-28T04:56:47.056Z,16.95
2023-07-28T04:59:13.515Z,16.96
2023-07-28T05:01:39.991Z,16.99
2023-07-28T05:04:08.460Z,17.01
2023-07-28T05:06:35.015Z,17.02
2023-07-28T05:09:01.428Z,17.04
2023-07-28T05:11:27.846Z,17.04
2023-07-28T05:13:54.419Z,17.08
2023-07-28T05:16:20.956Z,17.09
2023-07-28T05:18:49.660Z,17.11
2023-07-28T05:21:16.139Z,17.14
2023-07-28T05:23:42.634Z,17.14
2023-07-28T05:26:09.057Z,17.10
2023-07-28T05:28:37.200Z,17.10
2023-07-28T05:31:09.365Z,17.11
2023-07-28T05:33:42.489Z,17.13
2023-07-28T05:36:11.443Z,17.15
2023-07-28T05:38:37.902Z,17.16
2023-07-28T05:41:08.246Z,17.15
2023-07-28T05:43:36.827Z,17.15
2023-07-28T05:46:03.995Z,17.20
2023-07-28T05:48:32.976Z,17.18
2023-07-28T05:50:59.449Z,17.21
2023-07-28T05:53:25.941Z,17.21
2023-07-28T05:55:52.408Z,17.22
2023-07-28T05:58:18.981Z,17.23
2023-07-28T06:00:45.473Z,17.27
2023-07-28T06:03:13.359Z,17.31
2023-07-28T06:05:43.542Z,17.32
2023-07-28T06:08:12.646Z,17.38
2023-07-28T06:10:39.668Z,17.39
2023-07-28T06:13:06.248Z,17.45
2023-07-28T06:15:35.862Z,17.47
2023-07-28T06:18:03.435Z,17.50
2023-07-28T06:20:30.989Z,17.51
2023-07-28T06:22:57.512Z,17.52
2023-07-28T06:25:24.067Z,17.54
2023-07-28T06:27:50.563Z,17.55
2023-07-28T06:30:17.048Z,17.57
2023-07-28T06:32:43.697Z,17.56
2023-07-28T06:35:10.486Z,17.58
2023-07-28T06:37:40.521Z,17.61
2023-07-28T06:40:09.244Z,17.58
2023-07-28T06:42:36.233Z,17.64
2023-07-28T06:45:03.525Z,17.65
2023-07-28T06:47:32.327Z,17.66
2023-07-28T06:50:01.243Z,17.69
2023-07-28T06:52:32.935Z,17.74
2023-07-28T06:55:01.822Z,17.77
2023-07-28T06:57:28.265Z,17.80
2023-07-28T06:59:54.745Z,17.82
2023-07-28T07:02:21.190Z,17.86
2023-07-28T07:04:49.775Z,17.94
2023-07-28T07:07:16.363Z,17.96
2023-07-28T07:09:42.855Z,17.99
2023-07-28T07:12:11.811Z,17.98
2023-07-28T07:14:40.876Z,18.01
2023-07-28T07:17:08.235Z,18.01
2023-07-28T07:19:34.801Z,18.00
2023-07-28T07:22:01.772Z,17.99
2023-07-28T07:24:28.184Z,18.00
2023-07-28T07:26:54.675Z,17.97
2023-07-28T07:29:21.170Z,18.05
2023-07-28T07:31:50.076Z,18.07
2023-07-28T07:34:21.318Z,18.15
2023-07-28T07:36:48.210Z,18.14
2023-07-28T07:39:14.790Z,18.21
2023-07-28T07:41:41.213Z,18.20
2023-07-28T07:44:07.731Z,18.21
2023-07-28T07:46:34.226Z,18.15
2023-07-28T07:49:00.750Z,18.14
2023-07-28T07:51:27.409Z,18.13
2023-07-28T07:53:53.877Z,18.16
2023-07-28T07:56:20.405Z,18.21
2023-07-28T07:58:49.441Z,18.23
2023-07-28T08:01:15.905Z,18.32
2023-07-28T08:03:42.406Z,18.40
2023-07-28T08:06:11.066Z,18.50
2023-07-28T08:08:37.831Z,18.57
2023-07-28T08:11:04.451Z,18.70
2023-07-28T08:13:31.140Z,18.75
2023-07-28T08:15:57.811Z,18.78
2023-07-28T08:18:28.861Z,18.88
2023-07-28T08:20:57.809Z,18.93
2023-07-28T08:23:24.318Z,18.87
2023-07-28T08:25:50.713Z,18.93
2023-07-28T08:28:17.185Z,18.96
2023-07-28T08:30:43.690Z,19.00
2023-07-28T08:33:10.194Z,19.00
2023-07-28T08:35:36.706Z,18.92
2023-07-28T08:38:04.670Z,19.00
2023-07-28T08:40:31.160Z,19.04
2023-07-28T08:42:57.656Z,19.06
2023-07-28T08:45:25.570Z,19.00
2023-07-28T08:47:54.495Z,19.01
2023-07-28T08:50:21.157Z,18.96
2023-07-28T08:52:47.933Z,19.04
2023-07-28T08:55:14.555Z,19.18
2023-07-28T08:57:41.183Z,19.27
2023-07-28T09:00:14.946Z,19.34
2023-07-28T09:02:45.190Z,19.47
2023-07-28T09:05:25.146Z,19.43
2023-07-28T09:07:52.982Z,19.44
2023-07-28T09:10:21.920Z,19.45
2023-07-28T09:12:50.062Z,19.53
2023-07-28T09:15:19.276Z,19.54
2023-07-28T09:17:46.489Z,20.04
2023-07-28T09:20:17.192Z,20.37
2023-07-28T09:22:45.569Z,20.46
2023-07-28T09:25:16.768Z,20.76
2023-07-28T09:27:52.216Z,20.91
2023-07-28T09:30:21.336Z,20.74
2023-07-28T09:32:49.771Z,20.99
2023-07-28T09:35:19.994Z,21.21
2023-07-28T09:37:49.758Z,21.17
2023-07-28T09:40:19.267Z,20.89
2023-07-28T09:42:53.240Z,20.55
2023-07-28T09:45:37.224Z,20.48
2023-07-28T09:48:08.657Z,20.45
2023-07-28T09:50:39.109Z,20.33
2023-07-28T09:53:12.602Z,20.31
2023-07-28T09:55:42.116Z,20.28
2023-07-28T09:58:11.155Z,20.28
2023-07-28T10:00:38.507Z,20.24
2023-07-28T10:03:05.540Z,20.24
2023-07-28T10:05:38.569Z,20.27
2023-07-28T10:08:06.020Z,20.41
2023-07-28T10:10:33.233Z,20.49
2023-07-28T10:13:00.538Z,20.56
2023-07-28T10:15:32.257Z,20.79
2023-07-28T10:18:00.120Z,21.29
2023-07-28T10:20:35.799Z,21.55
2023-07-28T10:23:21.271Z,21.74
2023-07-28T10:25:50.282Z,21.67
2023-07-28T10:28:36.098Z,21.59
2023-07-28T10:31:07.443Z,21.58
2023-07-28T10:33:44.632Z,21.77
2023-07-28T10:36:34.205Z,21.77
2023-07-28T10:39:04.582Z,21.64
2023-07-28T10:41:31.911Z,21.33
2023-07-28T10:43:58.494Z,21.12
2023-07-28T10:46:25.092Z,20.88
2023-07-28T10:48:54.171Z,20.81
2023-07-28T10:51:23.157Z,20.76
2023-07-28T10:53:57.275Z,20.76
2023-07-28T10:56:26.594Z,20.77
2023-07-28T10:59:07.825Z,20.77
2023-07-28T11:01:43.843Z,20.76
2023-07-28T11:04:21.140Z,20.81
2023-07-28T11:06:55.462Z,20.86
2023-07-28T11:09:24.845Z,20.79
2023-07-28T11:11:52.435Z,20.87
2023-07-28T11:14:21.650Z,20.79
2023-07-28T11:16:51.069Z,20.74
2023-07-28T11:19:20.555Z,20.71
2023-07-28T11:21:52.172Z,20.77
2023-07-28T11:24:21.676Z,20.76
2023-07-28T11:26:48.126Z,20.68
2023-07-28T11:29:14.911Z,20.59
2023-07-28T11:31:42.466Z,20.59
2023-07-28T11:34:16.208Z,20.48
2023-07-28T11:36:42.945Z,20.46
2023-07-28T11:39:11.675Z,20.50
2023-07-28T11:41:39.570Z,20.62
2023-07-28T11:44:06.280Z,20.68
2023-07-28T11:46:37.424Z,20.85
2023-07-28T11:49:20.226Z,20.93
2023-07-28T11:51:49.410Z,20.93
2023-07-28T11:54:20.408Z,20.75
2023-07-28T11:56:47.917Z,20.69
2023-07-28T11:59:19.091Z,20.73
2023-07-28T12:07:14.965Z,20.72
2023-07-28T12:09:47.834Z,20.70
2023-07-28T12:12:25.081Z,20.68
2023-07-28T12:17:27.786Z,20.56
2023-07-28T12:20:15.679Z,20.32
2023-07-28T12:22:43.581Z,20.23
2023-07-28T12:25:10.790Z,20.14
2023-07-28T12:27:37.749Z,20.10
2023-07-28T12:30:05.481Z,20.04
2023-07-28T12:32:35.602Z,19.95
2023-07-28T12:35:14.529Z,19.86
2023-07-28T12:45:22.685Z,19.82
2023-07-28T12:47:58.882Z,19.81
2023-07-28T12:50:26.288Z,19.76
2023-07-28T12:55:22.350Z,19.63
2023-07-28T12:57:51.433Z,19.59
2023-07-28T13:02:48.440Z,19.50
2023-07-28T13:05:16.479Z,19.54
2023-07-28T13:11:17.134Z,19.54
2023-07-28T13:13:05.131Z,19.53
2023-07-28T13:15:31.523Z,19.52
2023-07-28T13:17:57.958Z,19.56
2023-07-28T13:20:24.583Z,19.44
2023-07-28T13:22:51.014Z,19.42
2023-07-28T13:25:17.404Z,19.39
2023-07-28T13:27:43.830Z,19.36
2023-07-28T13:30:11.360Z,19.29
2023-07-28T13:32:37.882Z,19.32
2023-07-28T13:35:04.944Z,19.36
2023-07-28T13:37:31.349Z,19.33
2023-07-28T13:39:57.769Z,19.34
2023-07-28T13:42:24.188Z,19.34
2023-07-28T13:44:58.959Z,19.28
2023-07-28T13:47:26.042Z,19.31
2023-07-28T13:49:52.698Z,19.34
2023-07-28T13:52:22.062Z,19.35
2023-07-28T13:57:21.208Z,19.27
2023-07-28T13:59:47.705Z,19.18
2023-07-28T14:02:18.067Z,19.19
2023-07-28T14:04:44.713Z,19.13
2023-07-28T14:07:11.627Z,19.12
2023-07-28T14:09:39.032Z,19.12
2023-07-28T14:12:08.942Z,19.09
2023-07-28T14:14:37.918Z,19.09
2023-07-28T14:17:04.734Z,19.02
2023-07-28T14:19:31.123Z,19.04
2023-07-28T14:21:57.535Z,19.03
2023-07-28T14:24:24.014Z,19.03
2023-07-28T14:26:50.478Z,18.98
2023-07-28T14:29:16.919Z,19.01
2023-07-28T14:31:43.383Z,19.02
2023-07-28T14:34:09.777Z,18.99
2023-07-28T14:36:36.593Z,18.99
2023-07-28T14:39:03.656Z,19.00
2023-07-28T14:41:32.403Z,18.98
2023-07-28T14:44:03.743Z,18.98
2023-07-28T14:46:30.259Z,19.03
2023-07-28T14:48:56.926Z,19.04
2023-07-28T14:51:24.006Z,19.03
2023-07-28T14:53:50.513Z,19.06
2023-07-28T14:56:21.958Z,19.09
2023-07-28T14:58:49.046Z,19.01
2023-07-28T15:01:15.480Z,19.06
2023-07-28T15:03:42.006Z,19.04
2023-07-28T15:06:08.966Z,19.06
2023-07-28T15:08:35.730Z,19.09
2023-07-28T15:11:04.676Z,19.11
2023-07-28T15:13:31.119Z,19.14
2023-07-28T15:15:57.838Z,19.18
2023-07-28T15:18:24.363Z,19.18
2023-07-28T15:20:50.949Z,19.24
2023-07-28T15:23:19.554Z,19.20
2023-07-28T15:25:49.045Z,19.23
2023-07-28T15:28:16.200Z,19.21
2023-07-28T15:30:47.515Z,19.18
2023-07-28T15:33:14.340Z,19.20
2023-07-28T15:35:40.993Z,19.23
2023-07-28T15:38:07.771Z,19.25
2023-07-28T15:40:34.347Z,19.24
2023-07-28T15:43:00.933Z,19.25
2023-07-28T15:45:27.606Z,19.17
2023-07-28T15:47:54.108Z,19.14
2023-07-28T15:50:20.651Z,19.18
2023-07-28T15:52:47.199Z,19.22
2023-07-28T15:55:15.781Z,19.13
2023-07-28T15:57:42.256Z,19.11
2023-07-28T16:00:11.426Z,19.13
2023-07-28T16:02:38.375Z,19.15
2023-07-28T16:05:07.829Z,19.08
2023-07-28T16:07:34.249Z,19.11
2023-07-28T16:10:01.305Z,19.14
2023-07-28T16:12:28.172Z,19.10
2023-07-28T16:14:57.498Z,19.09
2023-07-28T16:17:24.054Z,19.06
2023-07-28T16:19:51.477Z,19.05
2023-07-28T16:22:18.927Z,19.07
2023-07-28T16:24:47.089Z,19.06
2023-07-28T16:27:14.253Z,19.03
2023-07-28T16:29:41.306Z,18.95
2023-07-28T16:32:13.621Z,18.97
2023-07-28T16:34:40.007Z,18.97
2023-07-28T16:37:07.750Z,18.95
2023-07-28T16:39:34.236Z,18.99
2023-07-28T16:42:00.747Z,18.98
2023-07-28T16:44:27.398Z,19.04
2023-07-28T16:46:53.811Z,19.06
2023-07-28T16:49:20.325Z,19.08
2023-07-28T16:51:46.786Z,19.11
2023-07-28T16:54:13.245Z,19.11
2023-07-28T16:56:42.127Z,19.13
2023-07-28T16:59:09.715Z,19.12
2023-07-28T17:01:36.498Z,19.13
2023-07-28T17:04:05.401Z,19.14
2023-07-28T17:06:33.909Z,19.15
2023-07-28T17:09:00.359Z,19.17
2023-07-28T17:11:28.863Z,19.14
2023-07-28T17:13:55.283Z,19.16
2023-07-28T17:16:23.135Z,19.11
2023-07-28T17:18:52.797Z,19.13
2023-07-28T17:21:20.774Z,19.16
2023-07-28T17:23:47.216Z,19.13
2023-07-28T17:26:13.847Z,19.12
2023-07-28T17:28:40.482Z,19.11
2023-07-28T17:31:06.948Z,19.12
2023-07-28T17:33:33.541Z,19.11
2023-07-28T17:36:02.034Z,19.07
2023-07-28T17:38:29.816Z,19.07
2023-07-28T17:40:56.403Z,19.03
2023-07-28T17:43:22.955Z,19.05
2023-07-28T17:45:49.481Z,19.05
2023-07-28T17:48:19.058Z,19.07
2023-07-28T17:50:45.686Z,19.06
2023-07-28T17:53:12.200Z,19.07
2023-07-28T17:55:39.234Z,19.07
2023-07-28T17:58:05.800Z,19.02
2023-07-28T18:00:33.890Z,19.03
2023-07-28T18:03:04.057Z,19.03
2023-07-28T18:05:31.009Z,19.00
2023-07-28T18:07:57.587Z,18.96
2023-07-28T18:10:24.329Z,18.92
2023-07-28T18:12:50.838Z,18.92
2023-07-28T18:15:19.657Z,18.91
2023-07-28T18:17:46.155Z,18.85
2023-07-28T18:20:12.821Z,18.85
2023-07-28T18:22:39.281Z,18.83
2023-07-28T18:25:06.258Z,18.84
2023-07-28T18:27:32.802Z,18.81
2023-07-28T18:29:59.311Z,18.79
2023-07-28T18:32:33.188Z,18.76
2023-07-28T18:34:59.652Z,18.74
2023-07-28T18:37:26.452Z,18.73
2023-07-28T18:39:52.905Z,18.71
2023-07-28T18:42:19.360Z,18.70
2023-07-28T18:44:45.861Z,18.69
2023-07-28T18:47:12.337Z,18.67
2023-07-28T18:49:38.790Z,18.64
2023-07-28T18:52:05.400Z,18.62
2023-07-28T18:54:31.837Z,18.61
2023-07-28T18:57:00.530Z,18.61
2023-07-28T18:59:27.317Z,18.58
2023-07-28T19:01:54.613Z,18.56
2023-07-28T19:04:21.799Z,18.55
2023-07-28T19:06:48.283Z,18.53
2023-07-28T19:09:14.916Z,18.51
2023-07-28T19:11:41.520Z,18.49
2023-07-28T19:14:10.535Z,18.48
2023-07-28T19:16:37.102Z,18.46
2023-07-28T19:19:04.554Z,18.44
2023-07-28T19:21:30.983Z,18.43
2023-07-28T19:23:57.666Z,18.40
2023-07-28T19:26:25.119Z,18.37
2023-07-28T19:28:52.082Z,18.36
2023-07-28T19:31:18.757Z,18.36
2023-07-28T19:33:45.231Z,18.36
2023-07-28T19:36:11.659Z,18.35
2023-07-28T19:38:38.212Z,18.33
2023-07-28T19:41:04.682Z,18.31
2023-07-28T19:43:36.992Z,18.31
2023-07-28T19:46:03.466Z,18.29
2023-07-28T19:48:31.148Z,18.27
2023-07-28T19:50:57.615Z,18.18
2023-07-28T19:53:24.098Z,18.14
2023-07-28T19:55:50.604Z,18.06
2023-07-28T19:58:19.268Z,18.04
2023-07-28T20:00:45.729Z,18.02
2023-07-28T20:03:12.505Z,18.02
2023-07-28T20:05:39.033Z,18.11
2023-07-28T20:08:07.702Z,18.08
2023-07-28T20:10:34.267Z,18.12
2023-07-28T20:13:04.064Z,18.13
2023-07-28T20:15:30.572Z,18.14
2023-07-28T20:17:57.383Z,18.00
2023-07-28T20:20:26.409Z,17.99
2023-07-28T20:22:57.900Z,17.95
2023-07-28T20:25:27.000Z,17.90
2023-07-28T20:27:53.630Z,17.85
2023-07-28T20:30:20.238Z,17.78
2023-07-28T20:32:47.404Z,17.71
2023-07-28T20:35:16.430Z,17.70
2023-07-28T20:37:46.146Z,17.63
2023-07-28T20:40:14.128Z,17.63
2023-07-28T20:42:48.550Z,17.57
2023-07-28T20:45:15.107Z,17.49
2023-07-28T20:47:41.591Z,17.48
2023-07-28T20:50:14.016Z,17.43
2023-07-28T20:52:42.839Z,17.38
2023-07-28T20:55:10.824Z,17.34
2023-07-28T20:57:38.022Z,17.32
2023-07-28T21:00:07.760Z,17.32
2023-07-28T21:02:35.537Z,17.30
2023-07-28T21:05:02.800Z,17.28
2023-07-28T21:07:29.292Z,17.31
2023-07-28T21:09:59.025Z,17.31
2023-07-28T21:12:25.531Z,17.30
2023-07-28T21:14:54.540Z,17.28
2023-07-28T21:17:21.254Z,17.27
2023-07-28T21:19:49.866Z,17.25
2023-07-28T21:22:16.329Z,17.23
2023-07-28T21:24:42.794Z,17.21
2023-07-28T21:27:09.340Z,17.19
2023-07-28T21:29:38.324Z,17.16
2023-07-28T21:32:06.537Z,17.20
2023-07-28T21:34:33.040Z,17.20
2023-07-28T21:36:59.525Z,17.20
2023-07-28T21:39:26.134Z,17.19
2023-07-28T21:41:54.796Z,17.19
2023-07-28T21:44:21.255Z,17.17
2023-07-28T21:46:48.437Z,17.26
2023-07-28T21:49:14.910Z,17.22
2023-07-28T21:51:43.441Z,17.31
2023-07-28T21:54:12.764Z,17.26
2023-07-28T21:56:41.696Z,17.42
2023-07-28T21:59:08.664Z,17.42
2023-07-28T22:01:38.122Z,17.36
2023-07-28T22:04:04.978Z,17.44
2023-07-28T22:06:31.525Z,17.37
2023-07-28T22:09:00.515Z,17.34
2023-07-28T22:11:27.060Z,17.30
2023-07-28T22:13:53.450Z,17.26
2023-07-28T22:16:19.976Z,17.22
2023-07-28T22:18:46.472Z,17.35
2023-07-28T22:21:15.356Z,17.42
2023-07-28T22:23:41.769Z,17.33
2023-07-28T22:26:08.384Z,17.33
2023-07-28T22:28:37.226Z,17.37
2023-07-28T22:31:03.777Z,17.35
2023-07-28T22:33:30.406Z,17.37
2023-07-28T22:35:57.002Z,17.41
2023-07-28T22:38:23.427Z,17.45
2023-07-28T22:40:52.254Z,17.44
2023-07-28T22:43:18.677Z,17.38
2023-07-28T22:45:45.310Z,17.35
2023-07-28T22:48:12.080Z,17.35
2023-07-28T22:50:38.547Z,17.33
2023-07-28T22:53:04.966Z,17.32
2023-07-28T22:55:31.440Z,17.31
2023-07-28T22:57:57.961Z,17.31
2023-07-28T23:00:24.520Z,17.32
2023-07-28T23:02:52.417Z,17.33
2023-07-28T23:05:19.476Z,17.33
2023-07-28T23:07:46.421Z,17.35
2023-07-28T23:10:17.233Z,17.35
2023-07-28T23:12:47.716Z,17.37
2023-07-28T23:15:15.404Z,17.38
2023-07-28T23:17:47.867Z,17.37
2023-07-28T23:20:14.338Z,17.37
2023-07-28T23:22:43.403Z,17.40
2023-07-28T23:25:09.937Z,17.39
2023-07-28T23:27:37.186Z,17.40
2023-07-28T23:30:07.723Z,17.41
2023-07-28T23:32:36.596Z,17.38
2023-07-28T23:35:06.512Z,17.36
2023-07-28T23:37:33.840Z,17.38
2023-07-28T23:40:00.493Z,17.42
2023-07-28T23:42:27.242Z,17.40
2023-07-28T23:44:55.891Z,17.39
2023-07-28T23:47:23.246Z,17.36
2023-07-28T23:49:49.695Z,17.38
2023-07-28T23:52:16.184Z,17.44
2023-07-28T23:54:45.283Z,17.44
2023-07-28T23:57:11.863Z,17.42
2023-07-28T23:59:38.294Z,17.40
